Time;durP1;ratioP1;P1;durP2;ratioP2;P2;SDS_P1;SDS_P2;PMS_P1;PMS_P2;Temp;Humidity;BMP_temperature;BMP_pressure;BME280_temperature;BME280_humidity;BME280_pressure;Samples;Min_cycle;Max_cycle;Signal;HPM_P1;HPM_P2
2023/12/11 00:02:23;;;;;;;;;;;;;;;7.83;83.47;97576.09;5038956;28;20040;-78
2023/12/11 00:04:49;;;;;;;0.80;0.80;;;;;;;7.81;83.69;97575.13;5041364;28;19917;-78
2023/12/11 00:07:14;;;;;;;0.80;0.80;;;;;;;7.88;82.98;97572.66;5043147;28;20036;-77
2023/12/11 00:09:40;;;;;;;0.80;0.80;;;;;;;7.85;83.57;97571.69;5042033;28;20029;-78
2023/12/11 00:12:06;;;;;;;0.80;0.80;;;;;;;7.84;83.98;97580.53;5040871;28;20061;-78
2023/12/11 00:14:31;;;;;;;0.77;0.77;;;;;;;7.88;83.65;97558.50;5042135;28;20487;-78
2023/12/11 00:16:57;;;;;;;0.70;0.70;;;;;;;7.96;84.05;97556.91;5039048;28;20038;-79
2023/12/11 00:19:22;;;;;;;0.70;0.70;;;;;;;8.04;83.54;97544.63;5037338;28;20413;-76
2023/12/11 00:21:50;;;;;;;0.70;0.70;;;;;;;7.99;83.96;97546.31;5030737;28;20040;-77
2023/12/11 00:24:15;;;;;;;0.70;0.70;;;;;;;8.04;83.30;97543.75;5034318;28;20031;-77
2023/12/11 00:26:41;;;;;;;0.80;0.80;;;;;;;7.93;84.09;97551.50;5042469;28;20041;-77
2023/12/11 00:29:06;;;;;;;0.80;0.80;;;;;;;8.03;83.49;97547.28;5045476;28;20379;-76
2023/12/11 00:31:32;;;;;;;0.70;0.70;;;;;;;8.13;83.61;97546.59;5044058;28;20041;-77
2023/12/11 00:33:57;;;;;;;0.80;0.80;;;;;;;8.08;83.89;97545.59;5039667;28;20033;-77
2023/12/11 00:36:23;;;;;;;0.60;0.60;;;;;;;8.06;83.99;97555.31;5028598;28;20073;-77
2023/12/11 00:38:48;;;;;;;0.70;0.70;;;;;;;8.06;83.93;97550.91;5036559;28;20045;-77
2023/12/11 00:41:16;;;;;;;0.80;0.80;;;;;;;8.05;83.86;97558.81;5032840;28;20044;-76
2023/12/11 00:43:42;;;;;;;0.70;0.70;;;;;;;7.92;84.13;97561.25;5030830;28;20037;-77
2023/12/11 00:46:11;;;;;;;0.70;0.70;;;;;;;8.11;83.72;97551.00;5029034;28;20048;-76
2023/12/11 00:48:37;;;;;;;0.80;0.80;;;;;;;8.03;84.12;97555.25;5029753;28;20086;-77
2023/12/11 00:51:02;;;;;;;0.70;0.70;;;;;;;8.06;83.70;97548.25;5031775;28;20123;-76
2023/12/11 00:53:28;;;;;;;0.70;0.70;;;;;;;8.24;83.08;97542.41;5031252;28;20506;-76
2023/12/11 00:55:53;;;;;;;0.77;0.77;;;;;;;8.35;82.44;97550.56;5044838;28;20088;-76
2023/12/11 00:58:19;;;;;;;0.70;0.70;;;;;;;8.31;82.58;97554.03;5033257;28;20050;-76
2023/12/11 01:00:44;;;;;;;0.70;0.70;;;;;;;8.63;81.26;97547.56;5028395;28;20094;-76
2023/12/11 01:03:10;;;;;;;0.75;0.75;;;;;;;8.56;81.80;97545.66;5032331;28;20068;-77
2023/12/11 01:05:35;;;;;;;0.70;0.70;;;;;;;8.56;81.92;97560.72;5031764;28;20045;-77
2023/12/11 01:08:01;;;;;;;0.77;0.77;;;;;;;8.54;81.98;97552.72;5034493;28;20371;-77
2023/12/11 01:10:26;;;;;;;0.70;0.70;;;;;;;8.67;81.33;97554.75;5023944;28;20102;-77
2023/12/11 01:12:52;;;;;;;0.70;0.70;;;;;;;8.81;81.05;97556.72;5029970;28;20053;-76
2023/12/11 01:15:17;;;;;;;0.70;0.70;;;;;;;8.75;81.26;97565.50;5028929;28;20071;-77
2023/12/11 01:17:43;;;;;;;0.60;0.60;;;;;;;8.77;80.81;97558.47;5030722;28;20047;-77
2023/12/11 01:20:09;;;;;;;0.70;0.70;;;;;;;8.63;82.31;97563.53;5032669;28;20037;-77
2023/12/11 01:22:35;;;;;;;0.70;0.70;;;;;;;8.54;82.77;97565.13;5031254;28;20040;-77
2023/12/11 01:25:03;;;;;;;0.60;0.60;;;;;;;8.63;83.12;97570.63;5038317;28;20030;-77
2023/12/11 01:27:28;;;;;;;0.70;0.70;;;;;;;8.51;84.34;97575.69;5034253;28;20372;-78
2023/12/11 01:29:54;;;;;;;0.70;0.70;;;;;;;8.36;86.10;97585.16;5031817;28;20063;-77
2023/12/11 01:32:19;;;;;;;0.65;0.65;;;;;;;8.33;86.50;97581.50;5030737;28;20041;-77
2023/12/11 01:34:45;;;;;;;0.70;0.70;;;;;;;8.22;87.01;97594.59;5030834;28;20507;-79
2023/12/11 01:37:10;;;;;;;0.73;0.73;;;;;;;8.15;86.84;97571.44;5030142;28;20064;-77
2023/12/11 01:39:36;;;;;;;0.70;0.70;;;;;;;8.03;87.68;97590.66;5028790;28;20033;-77
2023/12/11 01:42:01;;;;;;;0.70;0.70;;;;;;;8.07;87.71;97588.97;5032669;28;20052;-77
2023/12/11 01:44:27;;;;;;;0.70;0.70;;;;;;;8.00;88.14;97584.38;5030735;28;20041;-77
2023/12/11 01:46:53;;;;;;;0.73;0.73;;;;;;;7.89;88.80;97587.72;5031063;28;20037;-77
2023/12/11 01:49:19;;;;;;;0.73;0.73;;;;;;;7.69;89.10;97599.69;5035045;28;20091;-77
2023/12/11 01:51:47;;;;;;;0.80;0.80;;;;;;;7.61;89.77;97594.19;5031185;28;20069;-77
2023/12/11 01:54:13;;;;;;;0.70;0.70;;;;;;;7.43;90.30;97596.44;5028414;28;20037;-77
2023/12/11 01:56:39;;;;;;;0.80;0.80;;;;;;;7.29;90.67;97601.44;5029764;28;20037;-77
2023/12/11 01:59:05;;;;;;;0.70;0.70;;;;;;;7.26;91.87;97592.50;5034900;28;20475;-78
2023/12/11 02:01:31;;;;;;;0.70;0.70;;;;;;;7.14;92.62;97593.09;5028669;28;20044;-77
2023/12/11 02:03:56;;;;;;;0.68;0.68;;;;;;;7.16;92.57;97591.38;5028462;28;20037;-76
2023/12/11 02:06:22;;;;;;;0.70;0.70;;;;;;;7.22;92.88;97580.91;5028705;28;20179;-76
2023/12/11 02:08:48;;;;;;;0.70;0.70;;;;;;;7.24;92.56;97579.19;5025703;28;20039;-77
2023/12/11 02:11:14;;;;;;;0.70;0.70;;;;;;;7.11;92.82;97571.81;5033016;28;20076;-77
2023/12/11 02:13:40;;;;;;;0.70;0.70;;;;;;;6.95;93.46;97570.56;5034492;28;20167;-77
2023/12/11 02:16:06;;;;;;;0.80;0.80;;;;;;;6.77;93.83;97581.59;5028715;28;20042;-79
2023/12/11 02:18:31;;;;;;;0.80;0.80;;;;;;;6.78;93.83;97582.47;5031926;28;20104;-77
2023/12/11 02:20:57;;;;;;;0.80;0.80;;;;;;;6.48;94.09;97579.94;5028525;28;20094;-78
2023/12/11 02:23:33;;;;;;;0.80;0.80;;;;;;;6.51;94.25;97572.06;5037294;28;20788;-77
2023/12/11 02:26:25;;;;;;;0.70;0.70;;;;;;;6.21;94.91;97573.03;5028217;28;20034;-77
2023/12/11 02:28:51;;;;;;;0.80;0.80;;;;;;;6.05;95.06;97560.22;5023400;28;20098;-79
2023/12/11 02:31:16;;;;;;;0.80;0.80;;;;;;;5.87;95.11;97563.22;5032533;28;20053;-76
2023/12/11 02:33:42;;;;;;;0.80;0.80;;;;;;;6.13;96.17;97562.25;5031321;28;20033;-76
2023/12/11 02:36:08;;;;;;;0.80;0.80;;;;;;;5.74;95.65;97575.19;5027133;28;20060;-77
2023/12/11 02:38:33;;;;;;;0.77;0.77;;;;;;;5.72;95.74;97578.66;5030829;28;20045;-77
2023/12/11 02:40:59;;;;;;;0.70;0.70;;;;;;;5.80;96.16;97580.69;5028859;28;20530;-77
2023/12/11 02:43:24;;;;;;;0.80;0.80;;;;;;;5.71;96.06;97582.16;5030119;28;20463;-77
2023/12/11 02:45:49;;;;;;;0.80;0.80;;;;;;;5.76;95.94;97583.19;5030959;28;20064;-77
2023/12/11 02:48:15;;;;;;;0.80;0.80;;;;;;;5.82;96.36;97584.25;5049883;28;20029;-77
2023/12/11 02:50:41;;;;;;;0.70;0.70;;;;;;;5.89;96.15;97583.59;5035727;28;20038;-78
2023/12/11 02:53:08;;;;;;;0.80;0.80;;;;;;;5.95;96.05;97574.06;5034840;28;20037;-77
2023/12/11 02:55:33;;;;;;;0.80;0.80;;;;;;;5.95;95.96;97574.06;5051069;28;20060;-77
2023/12/11 02:58:01;;;;;;;0.80;0.80;;;;;;;5.95;95.95;97577.59;5044089;28;20041;-78
2023/12/11 03:00:28;;;;;;;0.77;0.77;;;;;;;5.96;95.83;97570.56;5032877;28;20072;-77
2023/12/11 03:02:54;;;;;;;0.90;0.90;;;;;;;5.97;96.03;97580.28;5032477;28;20034;-78
2023/12/11 03:05:20;;;;;;;0.80;0.80;;;;;;;6.05;96.08;97570.81;5035917;28;20036;-78
2023/12/11 03:07:45;;;;;;;0.85;0.85;;;;;;;6.05;95.79;97578.75;5031525;28;20034;-78
2023/12/11 03:10:11;;;;;;;0.80;0.80;;;;;;;6.05;95.84;97578.75;5030789;28;20044;-77
2023/12/11 03:12:37;;;;;;;0.80;0.80;;;;;;;6.09;95.74;97578.91;5031009;28;20442;-77
2023/12/11 03:15:04;;;;;;;0.85;0.85;;;;;;;6.11;96.12;97577.19;5033398;28;20039;-78
2023/12/11 03:17:30;;;;;;;0.90;0.90;;;;;;;6.14;96.23;97573.72;5033353;28;20055;-78
2023/12/11 03:19:55;;;;;;;0.80;0.80;;;;;;;6.17;95.66;97568.50;5033839;28;20372;-77
2023/12/11 03:22:24;;;;;;;0.80;0.80;;;;;;;6.11;95.46;97566.59;5035213;28;20033;-78
2023/12/11 03:24:50;;;;;;;0.80;0.80;;;;;;;6.17;95.29;97553.50;5030584;28;20049;-78
2023/12/11 03:27:16;;;;;;;0.80;0.80;;;;;;;6.15;95.36;97544.63;5032804;28;20345;-77
2023/12/11 03:29:42;;;;;;;0.80;0.80;;;;;;;6.19;95.55;97553.56;5032902;28;20040;-78
2023/12/11 03:32:08;;;;;;;0.80;0.80;;;;;;;6.70;95.48;97555.75;5032393;28;20437;-77
2023/12/11 03:34:33;;;;;;;0.80;0.80;;;;;;;6.73;95.49;97539.94;5036305;28;20037;-77
2023/12/11 03:36:59;;;;;;;0.80;0.80;;;;;;;7.03;94.67;97541.53;5030982;28;20640;-78
2023/12/11 03:39:25;;;;;;;0.80;0.80;;;;;;;7.10;94.45;97543.50;5032066;28;20042;-78
2023/12/11 03:41:51;;;;;;;0.80;0.80;;;;;;;7.25;93.86;97533.25;5033805;28;20045;-77
2023/12/11 03:44:16;;;;;;;0.70;0.70;;;;;;;7.31;93.09;97536.03;5032458;28;20384;-77
2023/12/11 03:46:42;;;;;;;0.80;0.80;;;;;;;7.68;92.99;97542.16;5035446;28;20041;-77
2023/12/11 03:49:07;;;;;;;0.77;0.77;;;;;;;7.84;92.08;97536.28;5033126;28;20184;-77
2023/12/11 03:51:33;;;;;;;0.70;0.70;;;;;;;7.89;92.22;97544.34;5023260;28;20037;-77
2023/12/11 03:54:00;;;;;;;0.80;0.80;;;;;;;7.79;92.44;97534.41;5032495;28;20116;-78
2023/12/11 03:56:26;;;;;;;;;;;;;;;7.80;92.44;97536.19;5028893;28;20106;-77
2023/12/11 03:58:51;;;;;;;0.80;0.80;;;;;;;7.75;92.80;97533.44;5036309;28;19916;-77
2023/12/11 04:01:17;;;;;;;0.75;0.75;;;;;;;7.73;93.08;97532.50;5033307;28;20029;-77
2023/12/11 04:03:42;;;;;;;0.70;0.70;;;;;;;7.77;93.16;97537.03;5032066;28;20064;-77
2023/12/11 04:06:08;;;;;;;0.70;0.70;;;;;;;7.74;93.24;97514.81;5031393;28;20037;-77
2023/12/11 04:08:38;;;;;;;0.70;0.70;;;;;;;7.63;93.93;97514.59;5029039;28;20140;-77
2023/12/11 04:11:03;;;;;;;0.70;0.70;;;;;;;7.55;94.10;97510.88;5028960;28;20132;-77
2023/12/11 04:13:29;;;;;;;0.70;0.70;;;;;;;7.55;94.19;97516.19;5028515;28;20120;-77
2023/12/11 04:15:54;;;;;;;0.70;0.70;;;;;;;7.50;94.63;97525.81;5030788;28;20478;-77
2023/12/11 04:18:20;;;;;;;0.68;0.68;;;;;;;7.60;94.59;97501.25;5031124;28;20041;-78
2023/12/11 04:20:45;;;;;;;0.70;0.70;;;;;;;7.56;94.85;97500.28;5030459;28;20116;-78
2023/12/11 04:23:11;;;;;;;0.70;0.70;;;;;;;7.75;94.94;97498.03;5027100;28;20041;-78
2023/12/11 04:25:36;;;;;;;0.70;0.70;;;;;;;7.69;94.77;97493.50;5031083;28;20045;-78
2023/12/11 04:28:02;;;;;;;0.60;0.60;;;;;;;7.65;94.75;97486.31;5033512;28;20033;-78
2023/12/11 04:30:27;;;;;;;0.70;0.70;;;;;;;7.57;94.75;97499.47;5032782;28;20040;-78
2023/12/11 04:32:53;;;;;;;0.80;0.80;;;;;;;7.54;94.91;97511.75;5027428;28;20312;-78
2023/12/11 04:35:18;;;;;;;0.70;0.70;;;;;;;7.44;94.97;97513.31;5034405;28;20465;-77
2023/12/11 04:37:46;;;;;;;0.70;0.70;;;;;;;7.50;95.16;97515.19;5028606;28;20072;-77
2023/12/11 04:40:12;;;;;;;0.70;0.70;;;;;;;7.54;95.21;97515.31;5034712;28;20037;-78
2023/12/11 04:42:37;;;;;;;0.70;0.70;;;;;;;7.58;95.85;97521.59;5028207;28;21038;-78
2023/12/11 04:45:03;;;;;;;0.70;0.70;;;;;;;7.56;95.71;97513.56;5030400;28;20684;-78
2023/12/11 04:47:29;;;;;;;0.70;0.70;;;;;;;7.61;95.88;97526.94;5034172;28;20083;-78
2023/12/11 04:49:54;;;;;;;0.70;0.70;;;;;;;7.69;95.84;97522.69;5031875;28;20121;-77
2023/12/11 04:52:20;;;;;;;0.70;0.70;;;;;;;7.68;95.91;97529.75;5030012;28;20734;-78
2023/12/11 04:54:45;;;;;;;0.70;0.70;;;;;;;7.70;95.66;97528.03;5035182;28;20061;-78
2023/12/11 04:57:10;;;;;;;0.70;0.70;;;;;;;7.63;95.99;97530.53;5031565;28;20529;-78
2023/12/11 04:59:36;;;;;;;0.70;0.70;;;;;;;7.76;95.92;97518.38;5033613;28;21358;-79
2023/12/11 05:02:01;;;;;;;0.70;0.70;;;;;;;7.69;96.01;97512.97;5027409;28;20029;-78
2023/12/11 05:04:28;;;;;;;0.70;0.70;;;;;;;7.56;96.33;97521.53;5033533;28;20114;-78
2023/12/11 05:06:54;;;;;;;0.70;0.70;;;;;;;7.56;96.33;97521.53;5031037;28;20083;-79
2023/12/11 05:09:19;;;;;;;0.70;0.70;;;;;;;7.43;95.89;97516.84;5027484;28;20033;-79
2023/12/11 05:11:45;;;;;;;0.80;0.80;;;;;;;7.19;95.75;97503.94;5030715;28;20045;-77
2023/12/11 05:14:10;;;;;;;0.70;0.70;;;;;;;6.99;95.95;97514.06;5032221;28;20037;-77
2023/12/11 05:16:36;;;;;;;0.70;0.70;;;;;;;6.56;96.14;97512.13;5027606;28;20029;-78
2023/12/11 05:19:02;;;;;;;0.70;0.70;;;;;;;6.38;95.94;97520.53;5025944;28;20740;-78
2023/12/11 05:21:28;;;;;;;0.70;0.70;;;;;;;6.24;96.26;97514.84;5029470;28;20053;-79
2023/12/11 05:23:54;;;;;;;0.80;0.80;;;;;;;6.20;96.46;97506.78;5028661;28;20037;-78
2023/12/11 05:26:20;;;;;;;0.70;0.70;;;;;;;6.26;97.66;97505.19;5031935;28;20038;-78
2023/12/11 05:28:45;;;;;;;0.70;0.70;;;;;;;6.32;98.34;97512.38;5031818;28;20051;-79
2023/12/11 05:31:10;;;;;;;0.80;0.80;;;;;;;6.09;98.40;97515.34;5032051;28;20036;-77
2023/12/11 05:33:36;;;;;;;0.80;0.80;;;;;;;5.95;98.04;97522.00;5031868;28;20056;-76
2023/12/11 05:36:02;;;;;;;0.70;0.70;;;;;;;5.93;98.35;97513.13;5029509;28;20037;-78
2023/12/11 05:38:27;;;;;;;0.80;0.80;;;;;;;5.85;98.04;97507.59;5029285;28;20033;-78
2023/12/11 05:40:55;;;;;;;0.80;0.80;;;;;;;5.84;98.37;97502.25;5030385;28;20052;-78
2023/12/11 05:43:21;;;;;;;0.80;0.80;;;;;;;5.74;98.78;97490.50;5029216;28;20357;-77
2023/12/11 05:45:46;;;;;;;0.70;0.70;;;;;;;5.67;98.14;97493.84;5036103;28;20025;-77
2023/12/11 05:48:11;;;;;;;0.80;0.80;;;;;;;5.70;98.34;97496.59;5029015;28;20037;-77
2023/12/11 05:50:37;;;;;;;0.80;0.80;;;;;;;5.57;98.87;97497.97;5034717;28;20069;-78
2023/12/11 05:53:03;;;;;;;0.80;0.80;;;;;;;5.66;98.55;97481.47;5029826;28;20414;-78
2023/12/11 05:55:28;;;;;;;0.80;0.80;;;;;;;5.59;99.11;97476.84;5038719;28;20040;-78
2023/12/11 05:57:53;;;;;;;0.77;0.77;;;;;;;5.83;99.50;97480.16;5029188;28;20115;-78
2023/12/11 06:00:19;;;;;;;0.80;0.80;;;;;;;5.62;99.57;97469.00;5038255;28;20037;-77
2023/12/11 06:02:45;;;;;;;0.80;0.80;;;;;;;5.67;99.60;97483.25;5033026;28;20135;-77
2023/12/11 06:05:10;;;;;;;0.80;0.80;;;;;;;5.43;99.38;97496.69;5026513;28;20037;-80
2023/12/11 06:07:36;;;;;;;0.80;0.80;;;;;;;5.53;99.33;97503.13;5029397;28;20045;-77
2023/12/11 06:10:03;;;;;;;0.80;0.80;;;;;;;5.43;99.33;97509.91;5035806;28;20036;-78
2023/12/11 06:12:28;;;;;;;0.80;0.80;;;;;;;5.65;99.36;97506.13;5028357;28;20040;-77
2023/12/11 06:14:54;;;;;;;0.80;0.80;;;;;;;5.39;99.56;97502.72;5029964;28;20624;-77
2023/12/11 06:17:19;;;;;;;0.80;0.80;;;;;;;5.34;99.86;97499.94;5033438;28;20048;-78
2023/12/11 06:19:45;;;;;;;0.90;0.90;;;;;;;5.41;100.00;97501.00;5030979;28;20131;-78
2023/12/11 06:22:11;;;;;;;0.80;0.80;;;;;;;5.19;100.00;97488.94;5032899;28;20098;-79
2023/12/11 06:24:40;;;;;;;0.90;0.90;;;;;;;4.95;100.00;97491.72;5032518;28;20112;-78
2023/12/11 06:27:06;;;;;;;0.85;0.85;;;;;;;5.20;100.00;97480.13;5028387;28;20432;-78
2023/12/11 06:29:32;;;;;;;0.80;0.80;;;;;;;5.02;100.00;97488.41;5030080;28;20525;-78
2023/12/11 06:31:57;;;;;;;0.77;0.77;;;;;;;5.10;100.00;97501.88;5036599;28;20057;-77
2023/12/11 06:34:23;;;;;;;0.90;0.90;;;;;;;5.26;100.00;97505.84;5032695;28;20128;-79
2023/12/11 06:36:48;;;;;;;0.85;0.85;;;;;;;5.35;100.00;97506.13;5034446;28;20039;-78
2023/12/11 06:39:14;;;;;;;0.88;0.88;;;;;;;5.60;100.00;97500.69;5037133;28;20046;-78
2023/12/11 06:41:40;;;;;;;0.80;0.80;;;;;;;5.59;100.00;97493.63;5033934;28;20056;-78
2023/12/11 06:44:05;;;;;;;0.80;0.80;;;;;;;5.57;100.00;97489.16;5033371;28;20120;-77
2023/12/11 06:46:31;;;;;;;0.80;0.80;;;;;;;5.52;100.00;97483.72;5034331;28;20650;-78
2023/12/11 06:48:56;;;;;;;0.80;0.80;;;;;;;5.54;100.00;97479.38;5035578;28;20047;-77
2023/12/11 06:51:25;;;;;;;0.80;0.80;;;;;;;5.41;100.00;97466.63;5035036;28;20124;-77
2023/12/11 06:53:51;;;;;;;0.80;0.80;;;;;;;5.15;100.00;97468.53;5035032;28;20032;-77
2023/12/11 06:56:21;;;;;;;0.90;0.90;;;;;;;5.04;100.00;97456.75;5037162;28;20045;-77
2023/12/11 06:58:46;;;;;;;0.80;0.80;;;;;;;4.86;100.00;97489.69;5032725;28;20045;-78
2023/12/11 07:01:13;;;;;;;0.80;0.80;;;;;;;5.07;100.00;97472.69;5037477;28;20033;-78
2023/12/11 07:03:40;;;;;;;1.00;1.00;;;;;;;4.94;100.00;97484.66;5034721;28;20047;-78
2023/12/11 07:06:07;;;;;;;0.77;0.77;;;;;;;5.17;100.00;97487.97;5040422;28;20065;-79
2023/12/11 07:08:33;;;;;;;0.90;0.90;;;;;;;5.08;100.00;97493.91;5033345;28;20042;-80
2023/12/11 07:10:59;;;;;;;0.90;0.90;;;;;;;5.10;100.00;97484.25;5034104;28;20025;-77
2023/12/11 07:13:25;;;;;;;0.90;0.90;;;;;;;5.16;100.00;97488.81;5031788;28;20045;-78
2023/12/11 07:15:50;;;;;;;0.82;0.82;;;;;;;5.10;100.00;97484.25;5025642;28;20513;-79
2023/12/11 07:18:16;;;;;;;0.90;0.90;;;;;;;5.09;100.00;97473.63;5035719;28;20254;-79
2023/12/11 07:20:41;;;;;;;0.90;0.90;;;;;;;5.19;100.00;97473.06;5031176;28;20036;-79
2023/12/11 07:23:07;;;;;;;0.80;0.80;;;;;;;5.12;100.00;97463.13;5042516;28;20033;-79
2023/12/11 07:25:33;;;;;;;0.80;0.80;;;;;;;5.27;100.00;97454.75;5030271;28;20411;-80
2023/12/11 07:27:59;;;;;;;0.80;0.80;;;;;;;5.18;100.00;97457.16;5038747;28;20116;-79
2023/12/11 07:30:26;;;;;;;0.80;0.80;;;;;;;5.13;99.82;97457.91;5029478;28;20127;-80
2023/12/11 07:32:51;;;;;;;0.80;0.80;;;;;;;5.19;99.97;97457.19;5042208;28;20061;-79
2023/12/11 07:35:17;;;;;;;0.80;0.80;;;;;;;5.17;99.71;97450.94;5031780;28;20056;-79
2023/12/11 07:37:42;;;;;;;0.90;0.90;;;;;;;5.22;99.68;97446.72;5030154;28;20033;-78
2023/12/11 07:40:09;;;;;;;0.85;0.85;;;;;;;5.20;99.75;97458.97;5031061;28;20029;-78
2023/12/11 07:42:36;;;;;;;0.80;0.80;;;;;;;5.32;99.48;97461.09;5030791;28;20116;-75
2023/12/11 07:45:04;;;;;;;0.80;0.80;;;;;;;5.33;99.19;97465.53;5033721;28;20041;-78
2023/12/11 07:47:33;;;;;;;0.80;0.80;;;;;;;5.35;99.22;97456.78;5036383;28;20103;-78
2023/12/11 07:50:00;;;;;;;0.80;0.80;;;;;;;5.39;99.41;97453.38;5026864;28;20490;-78
2023/12/11 07:52:30;;;;;;;0.88;0.88;;;;;;;5.44;98.79;97463.19;5030820;28;20642;-79
2023/12/11 07:54:56;;;;;;;0.80;0.80;;;;;;;5.49;98.97;97446.59;5030499;28;20100;-78
2023/12/11 07:57:24;;;;;;;0.80;0.80;;;;;;;5.46;99.03;97453.53;5030232;28;20052;-79
2023/12/11 07:59:50;;;;;;;0.80;0.80;;;;;;;5.43;98.56;97441.16;5035044;28;21908;-79
2023/12/11 08:02:15;;;;;;;0.80;0.80;;;;;;;5.41;98.68;97426.97;5031806;28;20080;-80
2023/12/11 08:04:40;;;;;;;0.90;0.90;;;;;;;5.35;98.66;97426.78;5042804;28;20033;-79
2023/12/11 08:07:06;;;;;;;0.90;0.90;;;;;;;5.28;98.40;97438.97;5032303;28;20048;-79
2023/12/11 08:09:36;;;;;;;0.80;0.80;;;;;;;5.40;98.25;97447.22;5037899;28;20029;-78
2023/12/11 08:12:02;;;;;;;0.90;0.90;;;;;;;5.56;98.53;97448.56;5032997;28;20029;-79
2023/12/11 08:14:28;;;;;;;0.90;0.90;;;;;;;5.81;97.95;97458.06;5038179;28;20040;-79
2023/12/11 08:16:53;;;;;;;0.80;0.80;;;;;;;5.97;97.21;97453.22;5031635;28;20034;-79
2023/12/11 08:19:19;;;;;;;0.80;0.80;;;;;;;6.13;96.75;97463.34;5029869;28;20090;-79
2023/12/11 08:21:44;;;;;;;0.80;0.80;;;;;;;6.28;96.63;97492.00;5031990;28;20038;-80
2023/12/11 08:24:10;;;;;;;0.80;0.80;;;;;;;6.26;95.72;97491.06;5018042;28;20045;-79
2023/12/11 08:26:36;;;;;;;0.70;0.70;;;;;;;6.39;95.91;97477.28;5033168;28;20175;-77
2023/12/11 08:29:01;;;;;;;0.70;0.70;;;;;;;6.48;95.78;97476.59;5034560;28;20037;-78
2023/12/11 08:31:27;;;;;;;0.80;0.80;;;;;;;6.55;95.62;97474.13;5032080;28;20076;-80
2023/12/11 08:33:52;;;;;;;0.80;0.80;;;;;;;6.62;95.56;97485.78;5032147;28;20033;-78
2023/12/11 08:36:17;;;;;;;0.80;0.80;;;;;;;6.72;95.34;97481.63;5035735;28;20892;-78
2023/12/11 08:38:43;;;;;;;0.80;0.80;;;;;;;7.12;93.62;97463.09;5032705;28;20037;-78
2023/12/11 08:41:11;;;;;;;0.80;0.80;;;;;;;7.25;93.51;97452.75;5031924;28;20100;-77
2023/12/11 08:43:37;;;;;;;0.80;0.80;;;;;;;7.46;92.44;97451.44;5031070;28;20040;-78
2023/12/11 08:46:02;;;;;;;0.80;0.80;;;;;;;7.67;92.53;97450.09;5031482;28;20592;-78
2023/12/11 08:48:28;;;;;;;0.70;0.70;;;;;;;7.83;91.90;97453.94;5029722;28;20038;-78
2023/12/11 08:50:53;;;;;;;0.70;0.70;;;;;;;8.15;89.11;97443.94;5029060;28;20041;-78
2023/12/11 08:53:20;;;;;;;0.70;0.70;;;;;;;8.34;90.58;97443.38;5029704;28;20045;-78
2023/12/11 08:55:46;;;;;;;0.80;0.80;;;;;;;8.37;90.42;97443.44;5011339;28;20041;-79
2023/12/11 08:58:11;;;;;;;0.70;0.70;;;;;;;8.40;90.48;97448.81;5020781;28;21119;-80
2023/12/11 09:00:37;;;;;;;0.70;0.70;;;;;;;9.55;87.77;97454.94;5031371;28;20025;-78
2023/12/11 09:03:03;;;;;;;0.70;0.70;;;;;;;10.82;84.21;97440.22;5027869;28;20041;-78
2023/12/11 09:05:28;;;;;;;0.60;0.60;;;;;;;12.25;78.17;97430.22;5030169;28;20038;-78
2023/12/11 09:07:55;;;;;;;0.50;0.50;;;;;;;12.11;73.60;97421.28;5031949;28;20045;-79
2023/12/11 09:10:21;;;;;;;0.50;0.50;;;;;;;11.81;76.84;97422.06;5036722;28;20041;-80
2023/12/11 09:12:47;;;;;;;0.50;0.50;;;;;;;12.12;75.96;97438.22;5047052;28;20139;-79
2023/12/11 09:15:13;;;;;;;0.50;0.50;;;;;;;11.31;76.29;97446.81;5030504;28;20045;-79
2023/12/11 09:17:38;;;;;;;0.40;0.40;;;;;;;10.97;75.77;97449.25;5030464;28;20136;-79
2023/12/11 09:20:06;;;;;;;0.40;0.40;;;;;;;10.90;74.11;97444.75;5016183;28;20037;-78
2023/12/11 09:22:31;;;;;;;;;;;;;;;10.51;75.57;97458.66;5046265;28;20836;-79
2023/12/11 09:24:57;;;;;;;0.60;0.60;;;;;;;10.36;75.14;97447.88;5045607;28;19917;-78
2023/12/11 09:27:22;;;;;;;0.50;0.50;;;;;;;10.31;74.76;97458.50;5023182;28;20033;-79
2023/12/11 09:29:48;;;;;;;0.60;0.60;;;;;;;10.21;75.29;97460.13;5048693;28;20033;-79
2023/12/11 09:32:15;;;;;;;0.50;0.50;;;;;;;10.27;75.62;97456.66;5028013;28;20037;-78
2023/12/11 09:34:41;;;;;;;0.60;0.60;;;;;;;10.39;73.53;97456.78;5034276;28;20040;-79
2023/12/11 09:37:06;;;;;;;0.60;0.60;;;;;;;10.32;74.28;97467.38;5032013;28;20042;-79
2023/12/11 09:39:32;;;;;;;0.50;0.50;;;;;;;10.20;74.59;97481.44;5037585;28;20037;-79
2023/12/11 09:41:58;;;;;;;0.60;0.60;;;;;;;10.07;75.52;97477.75;5032535;28;20033;-79
2023/12/11 09:44:26;;;;;;;0.50;0.50;;;;;;;10.21;74.04;97481.47;5033375;28;20055;-79
2023/12/11 09:46:56;;;;;;;0.60;0.60;;;;;;;10.24;73.77;97481.50;5031508;28;20458;-78
2023/12/11 09:49:22;;;;;;;0.60;0.60;;;;;;;10.10;74.52;97482.22;5031354;28;20075;-79
2023/12/11 09:51:47;;;;;;;0.60;0.60;;;;;;;10.03;75.49;97478.59;5029668;28;20507;-79
2023/12/11 09:54:13;;;;;;;0.60;0.60;;;;;;;10.34;74.66;97479.81;5027961;28;20148;-78
2023/12/11 09:56:39;;;;;;;0.60;0.60;;;;;;;10.45;73.88;97478.19;5027967;28;21521;-78
2023/12/11 09:59:05;;;;;;;0.60;0.60;;;;;;;10.57;73.28;97476.50;5028208;28;20037;-80
2023/12/11 10:01:32;;;;;;;0.50;0.50;;;;;;;10.62;72.78;97472.09;5020470;28;20052;-78
2023/12/11 10:03:57;;;;;;;0.60;0.60;;;;;;;10.50;73.13;97473.78;5020585;28;20487;-79
2023/12/11 10:06:23;;;;;;;0.57;0.57;;;;;;;10.31;74.51;97463.81;5016839;28;20049;-79
2023/12/11 10:08:53;;;;;;;0.60;0.60;;;;;;;10.52;73.75;97468.44;5034336;28;20033;-79
2023/12/11 10:11:22;;;;;;;0.60;0.60;;;;;;;10.70;72.89;97449.06;5029820;28;20041;-78
2023/12/11 10:13:48;;;;;;;0.52;0.52;;;;;;;10.86;72.94;97450.94;5032617;28;20373;-78
2023/12/11 10:16:31;;;;;;;0.60;0.60;;;;;;;10.68;72.73;97445.47;5029564;28;20041;-77
2023/12/11 10:18:57;;;;;;;0.50;0.50;;;;;;;10.52;74.19;97458.66;5035616;28;20033;-77
2023/12/11 10:21:24;;;;;;;0.60;0.60;;;;;;;10.53;74.05;97462.22;5027560;28;20049;-77
2023/12/11 10:24:05;;;;;;;0.55;0.55;;;;;;;10.47;73.37;97465.75;5026865;28;20042;-78
2023/12/11 10:26:37;;;;;;;0.50;0.50;;;;;;;10.58;73.82;97449.81;5033887;28;20045;-77
2023/12/11 10:29:23;;;;;;;0.60;0.60;;;;;;;10.75;72.89;97450.88;5025583;28;20087;-78
2023/12/11 10:31:49;;;;;;;0.60;0.60;;;;;;;11.38;69.74;97451.28;5031845;28;20399;-77
2023/12/11 10:34:15;;;;;;;0.60;0.60;;;;;;;11.46;69.40;97438.88;5029541;28;20594;-77
2023/12/11 10:36:51;;;;;;;0.60;0.60;;;;;;;11.32;69.61;97435.22;5027981;28;20045;-78
2023/12/11 10:39:19;;;;;;;0.60;0.60;;;;;;;11.46;68.94;97437.97;5020778;28;20041;-77
2023/12/11 10:41:45;;;;;;;0.50;0.50;;;;;;;11.24;69.14;97431.63;5031549;28;20468;-77
2023/12/11 10:44:25;;;;;;;0.50;0.50;;;;;;;11.29;68.94;97432.53;5029137;28;20044;-78
2023/12/11 10:46:54;;;;;;;0.60;0.60;;;;;;;11.30;69.47;97421.84;5030712;28;20045;-78
2023/12/11 10:49:24;;;;;;;0.60;0.60;;;;;;;11.23;69.28;97421.84;5027302;28;20048;-78
2023/12/11 10:51:50;;;;;;;0.55;0.55;;;;;;;11.40;68.94;97424.56;5030229;28;20032;-78
2023/12/11 10:54:16;;;;;;;0.60;0.60;;;;;;;11.44;68.83;97429.94;5030881;28;20087;-78
2023/12/11 10:56:43;;;;;;;0.55;0.55;;;;;;;11.52;67.84;97416.63;5027715;28;20048;-78
2023/12/11 10:59:10;;;;;;;0.60;0.60;;;;;;;11.72;68.00;97425.59;5030273;28;20049;-77
2023/12/11 11:01:36;;;;;;;0.60;0.60;;;;;;;11.83;67.54;97414.97;5029326;28;20052;-77
2023/12/11 11:04:02;;;;;;;0.60;0.60;;;;;;;12.06;66.70;97421.28;5027637;28;20041;-77
2023/12/11 11:06:29;;;;;;;0.80;0.80;;;;;;;13.52;62.91;97432.84;5031856;28;20049;-78
2023/12/11 11:09:06;;;;;;;0.60;0.60;;;;;;;13.40;62.12;97427.50;5033577;28;20069;-78
2023/12/11 11:11:37;;;;;;;0.50;0.50;;;;;;;12.85;64.13;97438.28;5040441;28;20063;-78
2023/12/11 11:14:28;;;;;;;0.50;0.50;;;;;;;12.55;65.48;97439.16;5039174;28;20051;-77
2023/12/11 11:16:54;;;;;;;0.60;0.60;;;;;;;12.46;66.08;97437.41;5030448;28;20053;-78
2023/12/11 11:19:20;;;;;;;0.55;0.55;;;;;;;12.45;65.97;97438.28;5032539;28;20082;-78
2023/12/11 11:22:09;;;;;;;0.50;0.50;;;;;;;12.24;65.48;97438.25;5034606;28;20033;-78
2023/12/11 11:24:35;;;;;;;0.50;0.50;;;;;;;12.00;66.54;97449.78;5019421;28;20045;-78
2023/12/11 11:27:01;;;;;;;0.60;0.60;;;;;;;12.25;65.55;97445.38;5033213;28;20025;-78
2023/12/11 11:29:42;;;;;;;0.60;0.60;;;;;;;12.31;65.38;97446.31;5031131;28;20048;-79
2023/12/11 11:32:12;;;;;;;0.50;0.50;;;;;;;12.33;65.66;97443.63;5031884;28;20099;-78
2023/12/11 11:34:40;;;;;;;0.60;0.60;;;;;;;12.65;65.13;97440.06;5035568;28;20375;-78
2023/12/11 11:37:06;;;;;;;0.50;0.50;;;;;;;12.50;65.20;97433.84;5036159;28;20048;-78